createdAt,value
2023-04-03T00:00:20.990Z,2.56
2023-04-03T00:01:20.961Z,2.57
2023-04-03T00:02:21.058Z,2.60
2023-04-03T00:03:21.081Z,2.58
2023-04-03T00:04:20.968Z,2.53
2023-04-03T00:05:20.961Z,2.49
2023-04-03T00:06:20.956Z,2.36
2023-04-03T00:07:20.940Z,2.35
2023-04-03T00:08:20.947Z,2.35
2023-04-03T00:09:20.906Z,2.32
2023-04-03T00:10:20.927Z,2.34
2023-04-03T00:11:21.614Z,2.34
2023-04-03T00:12:20.887Z,2.39
2023-04-03T00:13:20.900Z,2.37
2023-04-03T00:14:20.927Z,2.38
2023-04-03T00:15:20.895Z,2.35
2023-04-03T00:16:20.908Z,2.26
2023-04-03T00:17:20.915Z,2.25
2023-04-03T00:18:20.932Z,2.22
2023-04-03T00:19:20.930Z,2.23
2023-04-03T00:20:20.901Z,2.22
2023-04-03T00:21:20.915Z,2.20
2023-04-03T00:22:20.919Z,2.19
2023-04-03T00:23:20.913Z,2.12
2023-04-03T00:24:20.900Z,2.05
2023-04-03T00:25:20.921Z,2.05
2023-04-03T00:26:20.921Z,2.03
2023-04-03T00:27:20.923Z,1.99
2023-04-03T00:28:20.923Z,2.06
2023-04-03T00:29:20.923Z,2.10
2023-04-03T00:30:20.929Z,2.11
2023-04-03T00:31:20.950Z,2.13
2023-04-03T00:32:20.900Z,2.15
2023-04-03T00:33:20.909Z,2.06
2023-04-03T00:34:20.897Z,2.04
2023-04-03T00:35:20.888Z,1.97
2023-04-03T00:36:21.001Z,1.97
2023-04-03T00:37:20.923Z,1.96
2023-04-03T00:38:20.951Z,1.95
2023-04-03T00:39:20.894Z,1.95
2023-04-03T00:40:20.906Z,1.95
2023-04-03T00:41:20.884Z,1.93
2023-04-03T00:42:20.858Z,1.95
2023-04-03T00:43:20.855Z,1.93
2023-04-03T00:44:20.877Z,1.91
2023-04-03T00:45:20.888Z,1.89
2023-04-03T00:46:20.914Z,1.91
2023-04-03T00:47:20.878Z,1.96
2023-04-03T00:48:20.894Z,2.00
2023-04-03T00:49:20.880Z,2.01
2023-04-03T00:50:20.911Z,2.04
2023-04-03T00:51:20.934Z,2.03
2023-04-03T00:52:20.896Z,1.98
2023-04-03T00:53:20.917Z,2.01
2023-04-03T00:54:20.902Z,2.00
2023-04-03T00:55:20.923Z,1.95
2023-04-03T00:56:20.933Z,1.94
2023-04-03T00:57:20.959Z,1.95
2023-04-03T00:58:20.914Z,1.95
2023-04-03T00:59:20.935Z,2.01
2023-04-03T01:00:20.958Z,1.98
2023-04-03T01:01:21.053Z,2.02
2023-04-03T01:02:20.931Z,1.98
2023-04-03T01:03:20.939Z,1.91
2023-04-03T01:04:20.977Z,1.88
2023-04-03T01:05:20.966Z,1.86
2023-04-03T01:06:20.964Z,1.90
2023-04-03T01:07:20.945Z,1.92
2023-04-03T01:08:20.962Z,1.90
2023-04-03T01:09:20.959Z,1.92
2023-04-03T01:10:20.969Z,1.99
2023-04-03T01:11:20.963Z,1.99
2023-04-03T01:12:20.941Z,1.96
2023-04-03T01:13:20.947Z,1.93
2023-04-03T01:14:20.924Z,1.93
2023-04-03T01:15:20.918Z,1.92
2023-04-03T01:16:20.989Z,1.90
2023-04-03T01:17:20.924Z,1.92
2023-04-03T01:18:20.918Z,1.89
2023-04-03T01:19:20.908Z,1.85
2023-04-03T01:20:20.923Z,1.83
2023-04-03T01:21:20.896Z,1.83
2023-04-03T01:22:20.881Z,1.79
2023-04-03T01:23:20.896Z,1.75
2023-04-03T01:24:20.886Z,1.80
2023-04-03T01:25:20.894Z,1.79
2023-04-03T01:26:20.889Z,1.81
2023-04-03T01:27:20.854Z,1.78
2023-04-03T01:28:20.860Z,1.71
2023-04-03T01:29:20.914Z,1.66
2023-04-03T01:30:20.900Z,1.72
2023-04-03T01:31:20.878Z,1.72
2023-04-03T01:32:20.856Z,1.79
2023-04-03T01:33:20.872Z,1.79
2023-04-03T01:34:20.851Z,1.80
2023-04-03T01:35:20.879Z,1.84
2023-04-03T01:36:20.815Z,1.73
2023-04-03T01:37:20.826Z,1.70
2023-04-03T01:38:20.839Z,1.60
2023-04-03T01:39:20.848Z,1.62
2023-04-03T01:40:20.834Z,1.62
2023-04-03T01:41:20.829Z,1.62
2023-04-03T01:42:20.839Z,1.62
2023-04-03T01:43:20.820Z,1.60
2023-04-03T01:44:20.836Z,1.62
2023-04-03T01:45:20.810Z,1.62
2023-04-03T01:46:20.868Z,1.65
2023-04-03T01:47:20.833Z,1.66
2023-04-03T01:48:20.807Z,1.70
2023-04-03T01:49:20.828Z,1.72
2023-04-03T01:50:20.844Z,1.87
2023-04-03T01:51:20.835Z,2.00
2023-04-03T01:52:20.793Z,2.11
2023-04-03T01:53:20.831Z,2.19
2023-04-03T01:54:20.806Z,2.33
2023-04-03T01:55:20.812Z,2.59
2023-04-03T01:56:20.840Z,2.50
2023-04-03T01:57:20.860Z,2.41
2023-04-03T01:58:20.793Z,2.40
2023-04-03T01:59:20.818Z,2.32
2023-04-03T02:00:20.818Z,2.38
2023-04-03T02:01:20.943Z,2.39
2023-04-03T02:02:20.826Z,2.38
2023-04-03T02:03:20.826Z,2.43
2023-04-03T02:04:20.860Z,2.41
2023-04-03T02:05:20.899Z,2.47
2023-04-03T02:06:20.886Z,2.47
2023-04-03T02:07:20.870Z,2.55
2023-04-03T02:08:20.903Z,2.58
2023-04-03T02:09:20.910Z,2.61
2023-04-03T02:10:20.904Z,2.57
2023-04-03T02:11:20.951Z,2.48
2023-04-03T02:12:20.956Z,2.47
2023-04-03T02:13:20.978Z,2.48
2023-04-03T02:14:21.001Z,2.53
2023-04-03T02:15:21.020Z,2.58
2023-04-03T02:16:21.044Z,2.56
2023-04-03T02:17:21.035Z,2.58
2023-04-03T02:18:21.064Z,2.57
2023-04-03T02:19:21.057Z,2.59
2023-04-03T02:20:21.072Z,2.62
2023-04-03T02:21:21.077Z,2.57
2023-04-03T02:22:21.058Z,2.57
2023-04-03T02:23:21.097Z,2.53
2023-04-03T02:24:21.085Z,2.56
2023-04-03T02:25:21.118Z,2.52
2023-04-03T02:26:21.130Z,2.61
2023-04-03T02:27:21.137Z,2.60
2023-04-03T02:28:21.165Z,2.69
2023-04-03T02:29:21.135Z,2.66
2023-04-03T02:30:21.203Z,2.74
2023-04-03T02:31:21.231Z,2.70
2023-04-03T02:32:21.219Z,2.68
2023-04-03T02:33:21.230Z,2.78
2023-04-03T02:34:21.216Z,2.75
2023-04-03T02:35:21.255Z,2.67
2023-04-03T02:36:21.247Z,2.64
2023-04-03T02:37:21.289Z,2.61
2023-04-03T02:38:21.817Z,2.60
2023-04-03T02:39:21.301Z,2.69
2023-04-03T02:40:21.311Z,2.66
2023-04-03T02:41:21.304Z,2.60
2023-04-03T02:42:21.310Z,2.62
2023-04-03T02:43:21.352Z,2.67
2023-04-03T02:44:21.329Z,2.65
2023-04-03T02:45:21.354Z,2.65
2023-04-03T02:46:21.398Z,2.62
2023-04-03T02:47:21.363Z,2.54
2023-04-03T02:48:21.392Z,2.45
2023-04-03T02:49:21.366Z,2.49
2023-04-03T02:50:21.401Z,2.48
2023-04-03T02:51:21.395Z,2.44
2023-04-03T02:52:21.384Z,2.43
2023-04-03T02:53:21.381Z,2.45
2023-04-03T02:54:21.361Z,2.46
2023-04-03T02:55:21.392Z,2.47
2023-04-03T02:56:21.400Z,2.38
2023-04-03T02:57:21.457Z,2.37
2023-04-03T02:58:21.437Z,2.29
2023-04-03T02:59:21.461Z,2.30
2023-04-03T03:00:21.434Z,2.27
2023-04-03T03:01:21.505Z,2.30
2023-04-03T03:02:21.446Z,2.33
2023-04-03T03:03:21.445Z,2.25
2023-04-03T03:04:21.483Z,2.21
2023-04-03T03:05:21.521Z,2.27
2023-04-03T03:06:21.476Z,2.31
2023-04-03T03:07:21.453Z,2.35
2023-04-03T03:08:21.515Z,2.29
2023-04-03T03:09:21.491Z,2.28
2023-04-03T03:10:21.468Z,2.24
2023-04-03T03:11:21.471Z,2.23
2023-04-03T03:12:21.497Z,2.25
2023-04-03T03:13:21.498Z,2.19
2023-04-03T03:14:21.481Z,2.18
2023-04-03T03:15:21.502Z,2.18
2023-04-03T03:16:21.546Z,2.23
2023-04-03T03:17:21.513Z,2.19
2023-04-03T03:18:21.482Z,2.28
2023-04-03T03:19:21.499Z,2.17
2023-04-03T03:20:21.481Z,2.11
2023-04-03T03:21:21.490Z,2.15
2023-04-03T03:22:21.478Z,2.02
2023-04-03T03:23:21.494Z,2.08
2023-04-03T03:24:21.485Z,2.10
2023-04-03T03:25:21.484Z,2.12
2023-04-03T03:26:21.474Z,2.15
2023-04-03T03:27:21.470Z,2.11
2023-04-03T03:28:21.440Z,2.11
2023-04-03T03:29:21.443Z,2.11
2023-04-03T03:30:21.476Z,2.07
2023-04-03T03:31:21.458Z,2.00
2023-04-03T03:32:21.507Z,2.03
2023-04-03T03:33:21.398Z,2.06
2023-04-03T03:34:21.397Z,2.03
2023-04-03T03:35:21.427Z,1.96
2023-04-03T03:36:21.438Z,1.96
2023-04-03T03:37:21.370Z,2.03
2023-04-03T03:38:21.396Z,2.03
2023-04-03T03:39:21.388Z,1.98
2023-04-03T03:40:21.386Z,1.98
2023-04-03T03:41:21.374Z,1.97
2023-04-03T03:42:21.355Z,1.97
2023-04-03T03:43:21.385Z,1.99
2023-04-03T03:44:21.358Z,1.94
2023-04-03T03:45:21.350Z,1.96
2023-04-03T03:46:21.420Z,1.98
2023-04-03T03:47:21.333Z,1.95
2023-04-03T03:48:21.332Z,1.93
2023-04-03T03:49:21.320Z,1.87
2023-04-03T03:50:21.305Z,1.79
2023-04-03T03:51:21.284Z,1.78
2023-04-03T03:52:21.299Z,1.85
2023-04-03T03:53:21.306Z,1.83
2023-04-03T03:54:21.267Z,1.81
2023-04-03T03:55:21.286Z,1.83
2023-04-03T03:56:21.249Z,1.82
2023-04-03T03:57:21.312Z,1.85
2023-04-03T03:58:21.281Z,1.85
2023-04-03T03:59:21.263Z,1.86
2023-04-03T04:00:21.273Z,1.80
2023-04-03T04:01:21.248Z,1.76
2023-04-03T04:02:21.350Z,1.80
2023-04-03T04:03:21.317Z,1.78
2023-04-03T04:04:21.283Z,1.82
2023-04-03T04:05:21.192Z,1.76
2023-04-03T04:06:21.180Z,1.84
2023-04-03T04:07:21.221Z,1.85
2023-04-03T04:08:21.176Z,1.83
2023-04-03T04:09:21.169Z,1.78
2023-04-03T04:10:21.132Z,1.76
2023-04-03T04:11:21.125Z,1.67
2023-04-03T04:12:21.125Z,1.70
2023-04-03T04:13:21.092Z,1.72
2023-04-03T04:14:21.074Z,1.74
2023-04-03T04:15:21.061Z,1.74
2023-04-03T04:16:21.060Z,1.82
2023-04-03T04:17:21.074Z,1.80
2023-04-03T04:18:21.029Z,1.80
2023-04-03T04:19:21.000Z,1.79
2023-04-03T04:20:20.998Z,1.78
2023-04-03T04:21:20.988Z,1.76
2023-04-03T04:22:20.983Z,1.79
2023-04-03T04:23:20.959Z,1.81
2023-04-03T04:24:20.951Z,1.77
2023-04-03T04:25:20.957Z,1.81
2023-04-03T04:26:20.954Z,1.80
2023-04-03T04:27:20.944Z,1.77
2023-04-03T04:28:20.875Z,1.84
2023-04-03T04:29:20.889Z,1.85
2023-04-03T04:30:20.870Z,1.76
2023-04-03T04:31:20.935Z,1.78
2023-04-03T04:32:20.835Z,1.75
2023-04-03T04:33:20.842Z,1.79
2023-04-03T04:34:20.840Z,1.79
2023-04-03T04:35:20.854Z,1.77
2023-04-03T04:36:21.076Z,1.75
2023-04-03T04:37:20.780Z,1.75
2023-04-03T04:38:20.798Z,1.68
2023-04-03T04:39:20.798Z,1.68
2023-04-03T04:40:20.754Z,1.75
2023-04-03T04:41:20.732Z,1.77
2023-04-03T04:42:20.755Z,1.75
2023-04-03T04:43:20.735Z,1.72
2023-04-03T04:44:20.733Z,1.72
2023-04-03T04:45:20.724Z,1.71
2023-04-03T04:46:20.768Z,1.72
2023-04-03T04:47:20.681Z,1.74
2023-04-03T04:48:20.680Z,1.65
2023-04-03T04:49:20.746Z,1.74
2023-04-03T04:50:21.409Z,1.74
2023-04-03T04:51:20.617Z,1.63
2023-04-03T04:52:20.586Z,1.70
2023-04-03T04:53:20.620Z,1.64
2023-04-03T04:54:20.585Z,1.73
2023-04-03T04:55:20.559Z,1.62
2023-04-03T04:56:20.563Z,1.63
2023-04-03T04:57:20.564Z,1.59
2023-04-03T04:58:20.548Z,1.56
2023-04-03T04:59:21.493Z,1.60
2023-04-03T05:00:20.558Z,1.59
2023-04-03T05:01:27.933Z,1.65
2023-04-03T05:02:20.502Z,1.66
2023-04-03T05:03:20.474Z,1.54
2023-04-03T05:04:20.489Z,1.57
2023-04-03T05:05:20.426Z,1.56
2023-04-03T05:06:20.360Z,1.61
2023-04-03T05:07:20.332Z,1.64
2023-04-03T05:08:20.344Z,1.57
2023-04-03T05:09:20.280Z,1.56
2023-04-03T05:10:20.273Z,1.55
2023-04-03T05:11:20.233Z,1.49
2023-04-03T05:12:20.201Z,1.43
2023-04-03T05:13:20.136Z,1.49
2023-04-03T05:14:20.129Z,1.47
2023-04-03T05:15:20.056Z,1.57
2023-04-03T05:16:20.075Z,1.53
2023-04-03T05:17:20.016Z,1.52
2023-04-03T05:18:19.939Z,1.54
2023-04-03T05:19:19.947Z,1.54
2023-04-03T05:20:19.909Z,1.60
2023-04-03T05:21:19.900Z,1.58
2023-04-03T05:22:19.833Z,1.54
2023-04-03T05:23:19.815Z,1.60
2023-04-03T05:24:19.750Z,1.49
2023-04-03T05:25:19.748Z,1.50
2023-04-03T05:26:19.720Z,1.50
2023-04-03T05:27:19.696Z,1.54
2023-04-03T05:28:19.634Z,1.47
2023-04-03T05:29:19.595Z,1.44
2023-04-03T05:30:19.561Z,1.52
2023-04-03T05:31:19.589Z,1.43
2023-04-03T05:32:19.552Z,1.37
2023-04-03T05:33:19.511Z,1.36
2023-04-03T05:34:19.485Z,1.39
2023-04-03T05:35:19.444Z,1.42
2023-04-03T05:36:19.456Z,1.43
2023-04-03T05:37:19.410Z,1.40
2023-04-03T05:38:19.433Z,1.44
2023-04-03T05:39:19.413Z,1.41
2023-04-03T05:40:19.409Z,1.37
2023-04-03T05:41:19.466Z,1.36
2023-04-03T05:42:19.446Z,1.38
2023-04-03T05:43:19.407Z,1.36
2023-04-03T05:44:19.408Z,1.34
2023-04-03T05:45:19.400Z,1.39
2023-04-03T05:46:26.486Z,1.44
2023-04-03T05:47:19.376Z,1.44
2023-04-03T05:48:19.362Z,1.41
2023-04-03T05:49:19.355Z,1.41
2023-04-03T05:50:19.308Z,1.45
2023-04-03T05:51:19.328Z,1.41
2023-04-03T05:52:19.255Z,1.38
2023-04-03T05:53:19.241Z,1.34
2023-04-03T05:54:19.207Z,1.34
2023-04-03T05:55:19.162Z,1.37
2023-04-03T05:56:19.144Z,1.41
2023-04-03T05:57:19.081Z,1.38
2023-04-03T05:58:19.045Z,1.36
2023-04-03T05:59:19.028Z,1.41
2023-04-03T06:00:19.015Z,1.34
2023-04-03T06:01:18.989Z,1.34
2023-04-03T06:02:18.932Z,1.29
2023-04-03T06:03:19.015Z,1.29
2023-04-03T06:04:19.017Z,1.33
2023-04-03T06:05:18.850Z,1.34
2023-04-03T06:06:18.810Z,1.34
2023-04-03T06:07:18.775Z,1.30
2023-04-03T06:08:18.720Z,1.27
2023-04-03T06:09:18.699Z,1.25
2023-04-03T06:10:18.654Z,1.27
2023-04-03T06:11:18.655Z,1.24
2023-04-03T06:12:18.617Z,1.30
2023-04-03T06:13:18.565Z,1.27
2023-04-03T06:14:18.558Z,1.31
2023-04-03T06:15:18.528Z,1.37
2023-04-03T06:16:18.485Z,1.27
2023-04-03T06:17:18.582Z,1.26
2023-04-03T06:18:18.444Z,1.23
2023-04-03T06:19:18.395Z,1.26
2023-04-03T06:20:18.374Z,1.24
2023-04-03T06:21:18.394Z,1.22
2023-04-03T06:22:18.448Z,1.26
2023-04-03T06:23:18.293Z,1.21
2023-04-03T06:24:18.235Z,1.30
2023-04-03T06:25:18.204Z,1.33
2023-04-03T06:26:18.195Z,1.25
2023-04-03T06:27:18.176Z,1.23
2023-04-03T06:28:18.136Z,1.28
2023-04-03T06:29:18.092Z,1.34
2023-04-03T06:30:18.976Z,1.30
2023-04-03T06:31:18.144Z,1.26
2023-04-03T06:32:18.093Z,1.32
2023-04-03T06:33:18.081Z,1.24
2023-04-03T06:34:18.215Z,1.27
2023-04-03T06:35:18.088Z,1.27
2023-04-03T06:36:18.091Z,1.26
2023-04-03T06:37:18.110Z,1.28
2023-04-03T06:38:18.093Z,1.29
2023-04-03T06:39:18.112Z,1.33
2023-04-03T06:40:18.141Z,1.36
2023-04-03T06:41:18.114Z,1.33
2023-04-03T06:42:18.142Z,1.35
2023-04-03T06:43:18.144Z,1.43
2023-04-03T06:44:18.142Z,1.41
2023-04-03T06:45:18.117Z,1.47
2023-04-03T06:46:18.164Z,1.44
2023-04-03T06:47:18.118Z,1.46
2023-04-03T06:48:18.088Z,1.46
2023-04-03T06:49:18.147Z,1.49
2023-04-03T06:50:18.114Z,1.45
2023-04-03T06:51:18.114Z,1.41
2023-04-03T06:52:18.120Z,1.45
2023-04-03T06:53:18.179Z,1.47
2023-04-03T06:54:18.149Z,1.49
2023-04-03T06:55:18.144Z,1.46
2023-04-03T06:56:18.124Z,1.51
2023-04-03T06:57:18.182Z,1.43
2023-04-03T06:58:18.508Z,1.49
2023-04-03T06:59:18.120Z,1.51
2023-04-03T07:00:18.161Z,1.46
2023-04-03T07:01:18.181Z,1.47
2023-04-03T07:02:18.119Z,1.52
2023-04-03T07:03:18.140Z,1.45
2023-04-03T07:04:18.186Z,1.45
2023-04-03T07:05:18.151Z,1.47
2023-04-03T07:06:18.147Z,1.46
2023-04-03T07:07:18.138Z,1.48
2023-04-03T07:08:18.170Z,1.50
2023-04-03T07:09:18.133Z,1.54
2023-04-03T07:10:18.148Z,1.49
2023-04-03T07:11:18.172Z,1.50
2023-04-03T07:12:18.161Z,1.46
2023-04-03T07:13:18.184Z,1.51
2023-04-03T07:14:18.184Z,1.48
2023-04-03T07:15:18.171Z,1.52
2023-04-03T07:16:18.299Z,1.49
2023-04-03T07:17:18.189Z,1.53
2023-04-03T07:18:18.208Z,1.47
2023-04-03T07:19:18.202Z,1.47
2023-04-03T07:20:18.190Z,1.52
2023-04-03T07:21:18.186Z,1.46
2023-04-03T07:22:18.194Z,1.51
2023-04-03T07:23:18.194Z,1.55
2023-04-03T07:24:18.225Z,1.51
2023-04-03T07:25:18.228Z,1.50
2023-04-03T07:26:18.239Z,1.57
2023-04-03T07:27:18.241Z,1.48
2023-04-03T07:28:18.208Z,1.49
2023-04-03T07:29:18.242Z,1.51
2023-04-03T07:30:18.237Z,1.46
2023-04-03T07:31:18.409Z,1.42
2023-04-03T07:32:18.291Z,1.43
2023-04-03T07:33:18.177Z,1.45
2023-04-03T07:34:18.216Z,1.47
2023-04-03T07:35:18.239Z,1.47
2023-04-03T07:36:18.229Z,1.49
2023-04-03T07:37:18.221Z,1.50
2023-04-03T07:38:18.216Z,1.46
2023-04-03T07:39:18.222Z,1.48
2023-04-03T07:40:19.650Z,1.53
2023-04-03T07:41:18.189Z,1.53
2023-04-03T07:42:18.166Z,1.54
2023-04-03T07:43:18.204Z,1.46
2023-04-03T07:44:18.166Z,1.47
2023-04-03T07:45:18.192Z,1.46
2023-04-03T07:46:18.263Z,1.47
2023-04-03T07:47:18.201Z,1.45
2023-04-03T07:48:18.222Z,1.46
2023-04-03T07:49:18.166Z,1.44
2023-04-03T07:50:18.156Z,1.49
2023-04-03T07:51:18.126Z,1.47
2023-04-03T07:52:18.172Z,1.45
2023-04-03T07:53:18.106Z,1.46
2023-04-03T07:54:18.102Z,1.50
2023-04-03T07:55:18.091Z,1.51
2023-04-03T07:56:18.099Z,1.44
2023-04-03T07:57:18.150Z,1.46
2023-04-03T07:58:18.109Z,1.49
2023-04-03T07:59:18.106Z,1.48
2023-04-03T08:00:18.104Z,1.49
2023-04-03T08:01:18.105Z,1.42
2023-04-03T08:02:18.074Z,1.41
2023-04-03T08:03:18.216Z,1.46
2023-04-03T08:04:18.129Z,1.46
2023-04-03T08:05:18.079Z,1.43
2023-04-03T08:06:21.683Z,1.47
2023-04-03T08:07:19.058Z,1.47
2023-04-03T08:08:19.926Z,1.47
2023-04-03T08:09:17.996Z,1.50
2023-04-03T08:10:17.943Z,1.49
2023-04-03T08:11:17.925Z,1.55
2023-04-03T08:12:17.927Z,1.55
2023-04-03T08:13:17.902Z,1.50
2023-04-03T08:14:18.196Z,1.53
2023-04-03T08:15:17.805Z,1.48
2023-04-03T08:16:17.855Z,1.50
2023-04-03T08:17:17.760Z,1.47
2023-04-03T08:18:17.748Z,1.47
2023-04-03T08:19:25.487Z,1.50
2023-04-03T08:20:19.487Z,1.50
2023-04-03T08:21:17.605Z,1.51
2023-04-03T08:22:17.564Z,1.52
2023-04-03T08:23:19.386Z,1.52
2023-04-03T08:24:17.598Z,1.49
2023-04-03T08:25:17.623Z,1.45
2023-04-03T08:26:17.599Z,1.42
2023-04-03T08:27:17.608Z,1.50
2023-04-03T08:28:17.610Z,1.51
2023-04-03T08:29:17.635Z,1.47
2023-04-03T08:30:17.642Z,1.47
2023-04-03T08:31:17.638Z,1.44
2023-04-03T08:32:17.614Z,1.43
2023-04-03T08:33:17.617Z,1.42
2023-04-03T08:34:17.598Z,1.40
2023-04-03T08:35:17.635Z,1.43
2023-04-03T08:36:17.649Z,1.46
2023-04-03T08:37:17.598Z,1.51
2023-04-03T08:38:17.584Z,1.44
2023-04-03T08:39:17.591Z,1.42
2023-04-03T08:40:17.620Z,1.43
2023-04-03T08:41:17.614Z,1.39
2023-04-03T08:42:17.579Z,1.39
2023-04-03T08:43:17.609Z,1.37
2023-04-03T08:44:17.601Z,1.36
2023-04-03T08:45:17.577Z,1.36
2023-04-03T08:46:17.716Z,1.40
2023-04-03T08:47:17.580Z,1.42
2023-04-03T08:48:17.560Z,1.40
2023-04-03T08:49:17.567Z,1.41
2023-04-03T08:50:17.542Z,1.38
2023-04-03T08:51:17.509Z,1.38
2023-04-03T08:52:17.602Z,1.37
2023-04-03T08:53:17.513Z,1.37
2023-04-03T08:54:17.516Z,1.37
2023-04-03T08:55:17.519Z,1.38
2023-04-03T08:56:17.494Z,1.39
2023-04-03T08:57:17.517Z,1.36
2023-04-03T08:58:17.483Z,1.34
2023-04-03T08:59:17.494Z,1.32
2023-04-03T09:00:17.476Z,1.36
2023-04-03T09:01:17.456Z,1.30
2023-04-03T09:02:17.444Z,1.21
2023-04-03T09:03:17.502Z,1.22
2023-04-03T09:04:17.456Z,1.23
2023-04-03T09:05:17.361Z,1.23
2023-04-03T09:06:17.382Z,1.23
2023-04-03T09:07:17.311Z,1.25
2023-04-03T09:08:17.422Z,1.24
2023-04-03T09:09:17.321Z,1.19
2023-04-03T09:10:17.298Z,1.22
2023-04-03T09:11:17.281Z,1.31
2023-04-03T09:12:17.272Z,1.34
2023-04-03T09:13:17.226Z,1.38
2023-04-03T09:14:17.204Z,1.36
2023-04-03T09:15:19.928Z,1.29
2023-04-03T09:16:18.224Z,1.29
2023-04-03T09:17:17.157Z,1.29
2023-04-03T09:18:17.086Z,1.30
2023-04-03T09:19:17.100Z,1.32
2023-04-03T09:20:18.264Z,1.31
2023-04-03T09:21:16.975Z,1.34
2023-04-03T09:22:16.920Z,1.27
2023-04-03T09:23:16.908Z,1.23
2023-04-03T09:24:17.052Z,1.20
2023-04-03T09:25:16.810Z,1.26
2023-04-03T09:26:16.767Z,1.27
2023-04-03T09:27:16.760Z,1.34
2023-04-03T09:28:16.705Z,1.28
2023-04-03T09:29:16.628Z,1.28
2023-04-03T09:30:16.639Z,1.32
2023-04-03T09:31:16.617Z,1.34
2023-04-03T09:32:16.552Z,1.35
2023-04-03T09:33:16.580Z,1.32
2023-04-03T09:34:16.457Z,1.32
2023-04-03T09:35:20.512Z,1.32
2023-04-03T09:36:17.400Z,1.32
2023-04-03T09:37:16.362Z,1.32
2023-04-03T09:38:16.334Z,1.34
2023-04-03T09:39:16.275Z,1.37
2023-04-03T09:40:16.315Z,1.39
2023-04-03T09:41:16.178Z,1.38
2023-04-03T09:42:17.048Z,1.38
2023-04-03T09:43:16.088Z,1.39
2023-04-03T09:44:16.068Z,1.35
2023-04-03T09:45:16.035Z,1.39
2023-04-03T09:46:16.068Z,1.35
2023-04-03T09:47:15.942Z,1.39
2023-04-03T09:48:16.692Z,1.38
2023-04-03T09:49:15.859Z,1.34
2023-04-03T09:50:15.795Z,1.39
2023-04-03T09:51:15.801Z,1.31
2023-04-03T09:52:15.753Z,1.31
2023-04-03T09:53:15.705Z,1.27
2023-04-03T09:54:15.718Z,1.23
2023-04-03T09:55:15.672Z,1.28
2023-04-03T09:56:15.849Z,1.27
2023-04-03T09:57:15.669Z,1.17
2023-04-03T09:58:15.632Z,1.20
2023-04-03T09:59:15.575Z,1.16
2023-04-03T10:00:15.586Z,1.14
2023-04-03T10:01:15.656Z,1.18
2023-04-03T10:02:15.605Z,1.20
2023-04-03T10:03:15.573Z,1.16
2023-04-03T10:04:15.637Z,1.15
2023-04-03T10:05:15.626Z,1.08
2023-04-03T10:06:15.594Z,1.05
2023-04-03T10:07:15.593Z,0.96
2023-04-03T10:08:15.612Z,1.03
2023-04-03T10:09:15.638Z,1.02
2023-04-03T10:10:15.649Z,1.03
2023-04-03T10:11:15.633Z,1.05
2023-04-03T10:12:15.685Z,1.02
2023-04-03T10:13:21.015Z,0.96
2023-04-03T10:14:16.560Z,0.96
2023-04-03T10:15:15.556Z,0.95
2023-04-03T10:16:15.527Z,0.91
2023-04-03T10:17:15.484Z,0.92
2023-04-03T10:18:24.440Z,0.86
2023-04-03T10:19:16.397Z,0.93
2023-04-03T10:20:15.328Z,0.89
2023-04-03T10:21:26.646Z,0.88
2023-04-03T10:22:16.235Z,0.95
2023-04-03T10:23:15.236Z,0.87
2023-04-03T10:24:15.173Z,0.86
2023-04-03T10:25:15.148Z,0.82
2023-04-03T10:26:15.118Z,0.83
2023-04-03T10:27:15.049Z,0.91
2023-04-03T10:28:15.080Z,0.92
2023-04-03T10:29:14.962Z,0.88
2023-04-03T10:30:14.938Z,0.88
2023-04-03T10:31:14.909Z,0.87
2023-04-03T10:32:14.816Z,0.79
2023-04-03T10:33:14.785Z,0.82
2023-04-03T10:34:14.748Z,0.78
2023-04-03T10:35:14.695Z,0.85
2023-04-03T10:36:14.672Z,0.81
2023-04-03T10:37:14.621Z,0.82
2023-04-03T10:38:14.591Z,0.80
2023-04-03T10:39:14.580Z,0.77
2023-04-03T10:40:14.554Z,0.79
2023-04-03T10:41:16.423Z,0.86
2023-04-03T10:42:17.573Z,0.92
2023-04-03T10:43:15.070Z,0.92
2023-04-03T10:44:14.531Z,0.90
2023-04-03T10:45:14.418Z,0.86
2023-04-03T10:46:14.380Z,0.85
2023-04-03T10:47:14.322Z,0.89
2023-04-03T10:48:14.360Z,0.81
2023-04-03T10:49:14.305Z,0.76
2023-04-03T10:50:14.267Z,0.74
2023-04-03T10:51:14.217Z,0.68
2023-04-03T10:52:14.161Z,0.71
2023-04-03T10:53:14.116Z,0.77
2023-04-03T10:54:14.135Z,0.70
2023-04-03T10:55:14.080Z,0.58
2023-04-03T10:56:14.039Z,0.69
2023-04-03T10:57:14.345Z,0.66
2023-04-03T10:58:14.558Z,0.71
2023-04-03T10:59:13.962Z,0.68
2023-04-03T11:00:14.009Z,0.65
2023-04-03T11:01:13.899Z,0.70
2023-04-03T11:02:13.816Z,0.74
2023-04-03T11:03:13.950Z,0.79
2023-04-03T11:04:13.828Z,0.63
2023-04-03T11:05:13.691Z,0.66
2023-04-03T11:06:13.695Z,0.60
2023-04-03T11:07:13.667Z,0.62
2023-04-03T11:08:13.659Z,0.65
2023-04-03T11:09:13.608Z,0.64
2023-04-03T11:10:14.628Z,0.55
2023-04-03T11:11:13.515Z,0.53
2023-04-03T11:12:13.489Z,0.56
2023-04-03T11:13:13.474Z,0.59
2023-04-03T11:14:13.412Z,0.60
2023-04-03T11:15:13.414Z,0.64
2023-04-03T11:16:13.522Z,0.72
2023-04-03T11:17:13.324Z,0.74
2023-04-03T11:18:13.358Z,0.75
2023-04-03T11:19:13.276Z,0.74
2023-04-03T11:20:13.242Z,0.74
2023-04-03T11:21:13.197Z,0.71
2023-04-03T11:22:13.132Z,0.71
2023-04-03T11:23:13.141Z,0.64
2023-04-03T11:24:13.143Z,0.62
2023-04-03T11:25:13.129Z,0.70
2023-04-03T11:26:13.129Z,0.70
2023-04-03T11:27:13.180Z,0.68
2023-04-03T11:28:13.130Z,0.66
2023-04-03T11:29:17.896Z,0.65
2023-04-03T11:30:14.189Z,0.64
2023-04-03T11:31:13.144Z,0.58
2023-04-03T11:32:13.147Z,0.57
2023-04-03T11:33:13.074Z,0.59
2023-04-03T11:34:12.992Z,0.50
2023-04-03T11:35:12.979Z,0.51
2023-04-03T11:36:24.925Z,0.55
2023-04-03T11:37:13.900Z,0.55
2023-04-03T11:38:12.853Z,0.56
2023-04-03T11:39:12.795Z,0.58
2023-04-03T11:40:12.790Z,0.62
2023-04-03T11:41:12.738Z,0.68
2023-04-03T11:42:13.259Z,0.70
2023-04-03T11:43:12.638Z,0.73
2023-04-03T11:44:12.621Z,0.76
2023-04-03T11:45:12.547Z,0.73
2023-04-03T11:46:12.624Z,0.69
2023-04-03T11:47:12.492Z,0.76
2023-04-03T11:48:23.751Z,0.67
2023-04-03T11:49:13.429Z,0.67
2023-04-03T11:50:12.378Z,0.67
2023-04-03T11:51:12.374Z,0.69
2023-04-03T11:52:12.330Z,0.66
2023-04-03T11:53:12.274Z,0.68
2023-04-03T11:54:12.240Z,0.85
2023-04-03T11:55:12.193Z,0.84
2023-04-03T11:56:12.168Z,0.79
2023-04-03T11:57:12.189Z,0.77
2023-04-03T11:58:12.086Z,0.63
2023-04-03T11:59:12.064Z,0.66
2023-04-03T12:00:12.068Z,0.68
2023-04-03T12:01:11.992Z,0.61
2023-04-03T12:02:11.946Z,0.62
2023-04-03T12:03:12.009Z,0.67
2023-04-03T12:04:12.062Z,0.66
2023-04-03T12:05:11.826Z,0.69
2023-04-03T12:06:11.825Z,0.68
2023-04-03T12:07:11.853Z,0.64
2023-04-03T12:08:11.816Z,0.55
2023-04-03T12:09:11.816Z,0.54
2023-04-03T12:10:15.500Z,0.62
2023-04-03T12:11:12.768Z,0.62
2023-04-03T12:12:11.732Z,0.57
2023-04-03T12:13:11.721Z,0.57
2023-04-03T12:14:11.666Z,0.54
2023-04-03T12:15:11.617Z,0.64
2023-04-03T12:16:11.598Z,0.62
2023-04-03T12:17:11.604Z,0.73
2023-04-03T12:18:11.523Z,0.74
2023-04-03T12:19:11.478Z,0.66
2023-04-03T12:20:11.550Z,0.70
2023-04-03T12:21:11.375Z,0.78
2023-04-03T12:22:11.365Z,0.78
2023-04-03T12:23:11.300Z,0.75
2023-04-03T12:24:11.281Z,0.67
2023-04-03T12:25:11.230Z,0.70
2023-04-03T12:26:11.210Z,0.69
2023-04-03T12:27:11.175Z,0.74
2023-04-03T12:28:11.164Z,0.75
2023-04-03T12:29:11.166Z,0.65
2023-04-03T12:30:11.172Z,0.75
2023-04-03T12:31:11.249Z,0.76
2023-04-03T12:32:11.164Z,0.62
2023-04-03T12:33:13.720Z,0.56
2023-04-03T12:34:11.151Z,0.58
2023-04-03T12:35:11.088Z,0.61
2023-04-03T12:36:11.166Z,0.69
2023-04-03T12:37:10.980Z,0.76
2023-04-03T12:38:10.992Z,0.67
2023-04-03T12:39:10.949Z,0.65
2023-04-03T12:40:10.987Z,0.61
2023-04-03T12:41:10.860Z,0.54
2023-04-03T12:42:10.826Z,0.51
2023-04-03T12:43:10.826Z,0.53
2023-04-03T12:44:10.778Z,0.54
2023-04-03T12:45:10.710Z,0.56
2023-04-03T12:46:10.733Z,0.57
2023-04-03T12:47:10.750Z,0.53
2023-04-03T12:48:10.642Z,0.56
2023-04-03T12:49:10.599Z,0.50
2023-04-03T12:50:10.541Z,0.51
2023-04-03T12:51:10.538Z,0.52
2023-04-03T12:52:10.587Z,0.51
2023-04-03T12:53:10.447Z,0.56
2023-04-03T12:54:10.433Z,0.54
2023-04-03T12:55:10.361Z,0.58
2023-04-03T12:56:10.356Z,0.54
2023-04-03T12:57:10.360Z,0.51
2023-04-03T12:58:10.280Z,0.50
2023-04-03T12:59:10.224Z,0.56
2023-04-03T13:00:10.176Z,0.70
2023-04-03T13:01:10.162Z,0.64
2023-04-03T13:02:10.218Z,0.62
2023-04-03T13:03:10.078Z,0.63
2023-04-03T13:04:10.045Z,0.69
2023-04-03T13:05:10.080Z,0.71
2023-04-03T13:06:10.017Z,0.70
2023-04-03T13:07:09.921Z,0.79
2023-04-03T13:08:09.997Z,0.78
2023-04-03T13:09:09.872Z,0.75
2023-04-03T13:10:09.969Z,0.57
2023-04-03T13:11:09.854Z,0.54
2023-04-03T13:12:09.804Z,0.65
2023-04-03T13:13:09.760Z,0.63
2023-04-03T13:14:09.757Z,0.64
2023-04-03T13:15:09.733Z,0.74
2023-04-03T13:16:09.720Z,0.66
2023-04-03T13:17:09.697Z,0.76
2023-04-03T13:18:09.693Z,0.74